Malden, Missouri
Current Conditions -  °F | °C
As of 2:55 PM on Tuesday 21 Oct 2014 (Local Time) from K4M9 Reporting Station
Light Rain Light Rain  
Wind Chill: 73°   Ceiling: Unl
Heat Index: 73°   Visibility: 10mi
Dew Point: 46°   Wind: 6mph
Humidity: 38%   Direction: 300°WNW
Pressure: 30.07"   Gusts: NA
Location:  36.56°N, 89.97°W
Report Text: K4M9 211955Z AUTO 30005KT 10SM -RA CLR 23/08 A3007 RMK AO2
Loading
Personal Weather Stations






























Interactive Weather Map
Tropical Storm Tracking
New forecast layout! Learn more

10-Day Weather Forecast

Advertisements
Track Severe Weather on mobile